sensor_id;sensor_type;location;lat;lon;timestamp;temperature;humidity
19829;DHT22;10075;50.924;4.396;2023-01-08T00:01:08;11.80;99.90
19829;DHT22;10075;50.924;4.396;2023-01-08T00:03:36;11.80;99.90
19829;DHT22;10075;50.924;4.396;2023-01-08T00:06:04;11.80;99.90
19829;DHT22;10075;50.924;4.396;2023-01-08T00:08:32;11.90;99.90
19829;DHT22;10075;50.924;4.396;2023-01-08T00:11:00;11.80;99.90
19829;DHT22;10075;50.924;4.396;2023-01-08T00:13:27;11.60;99.90
19829;DHT22;10075;50.924;4.396;2023-01-08T00:15:54;11.20;99.90
19829;DHT22;10075;50.924;4.396;2023-01-08T00:18:23;10.30;99.90
19829;DHT22;10075;50.924;4.396;2023-01-08T00:20:52;9.90;99.90
19829;DHT22;10075;50.924;4.396;2023-01-08T00:23:19;9.70;99.90
19829;DHT22;10075;50.924;4.396;2023-01-08T00:25:47;9.60;99.90
19829;DHT22;10075;50.924;4.396;2023-01-08T00:28:14;9.60;99.90
19829;DHT22;10075;50.924;4.396;2023-01-08T00:30:41;9.60;99.90
19829;DHT22;10075;50.924;4.396;2023-01-08T00:33:09;9.60;99.90
19829;DHT22;10075;50.924;4.396;2023-01-08T00:35:38;9.50;99.90
19829;DHT22;10075;50.924;4.396;2023-01-08T00:38:06;9.50;99.90
19829;DHT22;10075;50.924;4.396;2023-01-08T00:40:33;9.40;99.90
19829;DHT22;10075;50.924;4.396;2023-01-08T00:43:01;9.20;99.90
19829;DHT22;10075;50.924;4.396;2023-01-08T00:45:28;9.20;99.90
19829;DHT22;10075;50.924;4.396;2023-01-08T00:47:55;9.10;99.90
19829;DHT22;10075;50.924;4.396;2023-01-08T00:50:22;9.00;99.90
19829;DHT22;10075;50.924;4.396;2023-01-08T00:52:51;9.20;99.90
19829;DHT22;10075;50.924;4.396;2023-01-08T00:55:18;9.10;99.90
19829;DHT22;10075;50.924;4.396;2023-01-08T00:57:45;9.20;99.90
19829;DHT22;10075;50.924;4.396;2023-01-08T01:00:14;9.20;99.90
19829;DHT22;10075;50.924;4.396;2023-01-08T01:02:42;9.30;99.90
19829;DHT22;10075;50.924;4.396;2023-01-08T01:05:10;9.30;99.90
19829;DHT22;10075;50.924;4.396;2023-01-08T01:07:40;9.40;99.90
19829;DHT22;10075;50.924;4.396;2023-01-08T01:10:09;9.30;99.90
19829;DHT22;10075;50.924;4.396;2023-01-08T01:12:36;9.40;99.90
19829;DHT22;10075;50.924;4.396;2023-01-08T01:15:05;9.30;99.90
19829;DHT22;10075;50.924;4.396;2023-01-08T01:17:32;9.30;99.90
19829;DHT22;10075;50.924;4.396;2023-01-08T01:19:59;9.30;99.90
19829;DHT22;10075;50.924;4.396;2023-01-08T01:22:27;9.30;99.90
19829;DHT22;10075;50.924;4.396;2023-01-08T01:24:54;9.30;99.90
19829;DHT22;10075;50.924;4.396;2023-01-08T01:27:24;9.40;99.90
19829;DHT22;10075;50.924;4.396;2023-01-08T01:29:52;9.50;99.90
19829;DHT22;10075;50.924;4.396;2023-01-08T01:32:19;9.60;99.90
19829;DHT22;10075;50.924;4.396;2023-01-08T01:34:46;9.60;99.90
19829;DHT22;10075;50.924;4.396;2023-01-08T01:37:13;9.60;99.90
19829;DHT22;10075;50.924;4.396;2023-01-08T01:39:41;9.60;99.90
19829;DHT22;10075;50.924;4.396;2023-01-08T01:42:11;9.60;99.90
19829;DHT22;10075;50.924;4.396;2023-01-08T01:45:03;9.60;99.90
19829;DHT22;10075;50.924;4.396;2023-01-08T01:47:33;9.70;99.90
19829;DHT22;10075;50.924;4.396;2023-01-08T01:50:03;9.70;99.90
19829;DHT22;10075;50.924;4.396;2023-01-08T01:52:36;9.70;99.90
19829;DHT22;10075;50.924;4.396;2023-01-08T01:55:05;9.70;99.90
19829;DHT22;10075;50.924;4.396;2023-01-08T01:57:36;9.70;99.90
19829;DHT22;10075;50.924;4.396;2023-01-08T02:00:08;9.80;99.90
19829;DHT22;10075;50.924;4.396;2023-01-08T02:02:35;9.80;99.90
19829;DHT22;10075;50.924;4.396;2023-01-08T02:05:02;9.80;99.90
19829;DHT22;10075;50.924;4.396;2023-01-08T02:07:37;9.90;99.90
19829;DHT22;10075;50.924;4.396;2023-01-08T02:10:10;9.90;99.90
19829;DHT22;10075;50.924;4.396;2023-01-08T02:12:41;9.90;99.90
19829;DHT22;10075;50.924;4.396;2023-01-08T02:15:14;9.90;99.90
19829;DHT22;10075;50.924;4.396;2023-01-08T02:17:47;10.00;99.90
19829;DHT22;10075;50.924;4.396;2023-01-08T02:20:19;10.00;99.90
19829;DHT22;10075;50.924;4.396;2023-01-08T02:23:00;10.10;99.90
19829;DHT22;10075;50.924;4.396;2023-01-08T02:25:41;10.10;99.90
19829;DHT22;10075;50.924;4.396;2023-01-08T02:28:14;10.10;99.90
19829;DHT22;10075;50.924;4.396;2023-01-08T02:30:41;10.20;99.90
19829;DHT22;10075;50.924;4.396;2023-01-08T02:33:08;10.20;99.90
19829;DHT22;10075;50.924;4.396;2023-01-08T02:35:38;10.30;99.90
19829;DHT22;10075;50.924;4.396;2023-01-08T02:38:09;10.30;99.90
19829;DHT22;10075;50.924;4.396;2023-01-08T02:40:46;10.30;99.90
19829;DHT22;10075;50.924;4.396;2023-01-08T02:43:25;10.30;99.90
19829;DHT22;10075;50.924;4.396;2023-01-08T02:45:55;10.30;99.90
19829;DHT22;10075;50.924;4.396;2023-01-08T02:48:30;10.20;99.90
19829;DHT22;10075;50.924;4.396;2023-01-08T02:51:03;10.10;99.90
19829;DHT22;10075;50.924;4.396;2023-01-08T02:53:32;10.10;99.90
19829;DHT22;10075;50.924;4.396;2023-01-08T02:56:04;10.00;99.90
19829;DHT22;10075;50.924;4.396;2023-01-08T02:58:35;10.10;99.90
19829;DHT22;10075;50.924;4.396;2023-01-08T03:01:05;10.10;99.90
19829;DHT22;10075;50.924;4.396;2023-01-08T03:03:33;10.20;99.90
19829;DHT22;10075;50.924;4.396;2023-01-08T03:06:03;10.20;99.90
19829;DHT22;10075;50.924;4.396;2023-01-08T03:08:32;10.30;99.90
19829;DHT22;10075;50.924;4.396;2023-01-08T03:11:03;10.30;99.90
19829;DHT22;10075;50.924;4.396;2023-01-08T03:13:36;10.20;99.90
19829;DHT22;10075;50.924;4.396;2023-01-08T03:16:08;10.30;99.90
19829;DHT22;10075;50.924;4.396;2023-01-08T03:18:43;10.30;99.90
19829;DHT22;10075;50.924;4.396;2023-01-08T03:21:12;10.30;99.90
19829;DHT22;10075;50.924;4.396;2023-01-08T03:23:41;10.40;99.90
19829;DHT22;10075;50.924;4.396;2023-01-08T03:26:10;10.40;99.90
19829;DHT22;10075;50.924;4.396;2023-01-08T03:28:43;10.40;99.90
19829;DHT22;10075;50.924;4.396;2023-01-08T03:31:13;10.50;99.90
19829;DHT22;10075;50.924;4.396;2023-01-08T03:33:42;10.40;99.90
19829;DHT22;10075;50.924;4.396;2023-01-08T03:36:13;10.40;99.90
19829;DHT22;10075;50.924;4.396;2023-01-08T03:38:46;10.30;99.90
19829;DHT22;10075;50.924;4.396;2023-01-08T03:41:18;10.40;99.90
19829;DHT22;10075;50.924;4.396;2023-01-08T03:43:46;10.40;99.90
19829;DHT22;10075;50.924;4.396;2023-01-08T03:46:16;10.40;99.90
19829;DHT22;10075;50.924;4.396;2023-01-08T03:48:45;10.40;99.90
19829;DHT22;10075;50.924;4.396;2023-01-08T03:51:12;10.30;99.90
19829;DHT22;10075;50.924;4.396;2023-01-08T03:53:39;10.30;99.90
19829;DHT22;10075;50.924;4.396;2023-01-08T03:56:07;10.20;99.90
19829;DHT22;10075;50.924;4.396;2023-01-08T03:58:34;10.20;99.90
19829;DHT22;10075;50.924;4.396;2023-01-08T04:01:02;10.20;99.90
19829;DHT22;10075;50.924;4.396;2023-01-08T04:03:29;10.30;99.90
19829;DHT22;10075;50.924;4.396;2023-01-08T04:05:58;10.40;99.90
19829;DHT22;10075;50.924;4.396;2023-01-08T04:08:25;10.40;99.90
19829;DHT22;10075;50.924;4.396;2023-01-08T04:10:52;10.30;99.90
19829;DHT22;10075;50.924;4.396;2023-01-08T04:13:19;10.30;99.90
19829;DHT22;10075;50.924;4.396;2023-01-08T04:15:47;10.20;99.90
19829;DHT22;10075;50.924;4.396;2023-01-08T04:18:16;10.10;99.90
19829;DHT22;10075;50.924;4.396;2023-01-08T04:20:44;10.10;99.90
19829;DHT22;10075;50.924;4.396;2023-01-08T04:23:12;10.10;99.90
19829;DHT22;10075;50.924;4.396;2023-01-08T04:25:39;10.00;99.90
19829;DHT22;10075;50.924;4.396;2023-01-08T04:28:06;9.90;99.90
19829;DHT22;10075;50.924;4.396;2023-01-08T04:30:33;9.80;99.90
19829;DHT22;10075;50.924;4.396;2023-01-08T04:33:00;9.80;99.90
19829;DHT22;10075;50.924;4.396;2023-01-08T04:35:28;9.70;99.90
19829;DHT22;10075;50.924;4.396;2023-01-08T04:37:55;9.60;99.90
19829;DHT22;10075;50.924;4.396;2023-01-08T04:40:22;9.50;99.90
19829;DHT22;10075;50.924;4.396;2023-01-08T04:42:49;9.40;99.90
19829;DHT22;10075;50.924;4.396;2023-01-08T04:45:16;9.30;99.90
19829;DHT22;10075;50.924;4.396;2023-01-08T04:47:43;9.30;99.90
19829;DHT22;10075;50.924;4.396;2023-01-08T04:50:10;9.30;99.90
19829;DHT22;10075;50.924;4.396;2023-01-08T04:52:39;9.20;99.90
19829;DHT22;10075;50.924;4.396;2023-01-08T04:55:06;9.30;99.90
19829;DHT22;10075;50.924;4.396;2023-01-08T04:57:33;9.20;99.90
19829;DHT22;10075;50.924;4.396;2023-01-08T05:00:00;9.10;99.90
19829;DHT22;10075;50.924;4.396;2023-01-08T05:02:28;9.00;99.90
19829;DHT22;10075;50.924;4.396;2023-01-08T05:04:55;9.10;99.90
19829;DHT22;10075;50.924;4.396;2023-01-08T05:07:22;9.00;99.90
19829;DHT22;10075;50.924;4.396;2023-01-08T05:09:50;9.00;99.90
19829;DHT22;10075;50.924;4.396;2023-01-08T05:12:17;8.90;99.90
19829;DHT22;10075;50.924;4.396;2023-01-08T05:14:44;8.90;99.90
19829;DHT22;10075;50.924;4.396;2023-01-08T05:17:11;8.80;99.90
19829;DHT22;10075;50.924;4.396;2023-01-08T05:19:38;8.90;99.90
19829;DHT22;10075;50.924;4.396;2023-01-08T05:22:06;8.90;99.90
19829;DHT22;10075;50.924;4.396;2023-01-08T05:24:33;8.90;99.90
19829;DHT22;10075;50.924;4.396;2023-01-08T05:27:01;8.80;99.90
19829;DHT22;10075;50.924;4.396;2023-01-08T05:29:28;8.80;99.90
19829;DHT22;10075;50.924;4.396;2023-01-08T05:31:55;8.80;99.90
19829;DHT22;10075;50.924;4.396;2023-01-08T05:34:22;8.90;99.90
19829;DHT22;10075;50.924;4.396;2023-01-08T05:36:49;8.90;99.90
19829;DHT22;10075;50.924;4.396;2023-01-08T05:39:16;8.80;99.90
19829;DHT22;10075;50.924;4.396;2023-01-08T05:41:43;8.80;99.90
19829;DHT22;10075;50.924;4.396;2023-01-08T05:44:12;8.70;99.90
19829;DHT22;10075;50.924;4.396;2023-01-08T05:46:39;8.70;99.90
19829;DHT22;10075;50.924;4.396;2023-01-08T05:49:06;8.70;99.90
19829;DHT22;10075;50.924;4.396;2023-01-08T05:51:33;8.70;99.90
19829;DHT22;10075;50.924;4.396;2023-01-08T05:54:00;8.70;99.90
19829;DHT22;10075;50.924;4.396;2023-01-08T05:56:27;8.70;99.90
19829;DHT22;10075;50.924;4.396;2023-01-08T05:58:54;8.70;99.90
19829;DHT22;10075;50.924;4.396;2023-01-08T06:01:22;8.70;99.90
19829;DHT22;10075;50.924;4.396;2023-01-08T06:03:49;8.60;99.90
19829;DHT22;10075;50.924;4.396;2023-01-08T06:06:16;8.60;99.90
19829;DHT22;10075;50.924;4.396;2023-01-08T06:08:43;8.70;99.90
19829;DHT22;10075;50.924;4.396;2023-01-08T06:11:10;8.70;99.90
19829;DHT22;10075;50.924;4.396;2023-01-08T06:13:40;8.70;99.90
19829;DHT22;10075;50.924;4.396;2023-01-08T06:16:08;8.70;99.90
19829;DHT22;10075;50.924;4.396;2023-01-08T06:18:37;8.70;99.90
19829;DHT22;10075;50.924;4.396;2023-01-08T06:21:04;8.70;99.90
19829;DHT22;10075;50.924;4.396;2023-01-08T06:23:31;8.60;99.90
19829;DHT22;10075;50.924;4.396;2023-01-08T06:26:00;8.60;99.90
19829;DHT22;10075;50.924;4.396;2023-01-08T06:28:29;8.60;99.90
19829;DHT22;10075;50.924;4.396;2023-01-08T06:30:56;8.60;99.90
19829;DHT22;10075;50.924;4.396;2023-01-08T06:33:24;8.70;99.90
19829;DHT22;10075;50.924;4.396;2023-01-08T06:35:52;8.70;99.90
19829;DHT22;10075;50.924;4.396;2023-01-08T06:38:19;8.80;99.90
19829;DHT22;10075;50.924;4.396;2023-01-08T06:40:46;8.80;99.90
19829;DHT22;10075;50.924;4.396;2023-01-08T06:43:14;8.80;99.90
19829;DHT22;10075;50.924;4.396;2023-01-08T06:45:42;8.80;99.90
19829;DHT22;10075;50.924;4.396;2023-01-08T06:48:09;8.80;99.90
19829;DHT22;10075;50.924;4.396;2023-01-08T06:50:36;8.80;99.90
19829;DHT22;10075;50.924;4.396;2023-01-08T06:53:04;8.80;99.90
19829;DHT22;10075;50.924;4.396;2023-01-08T06:55:31;8.80;99.90
19829;DHT22;10075;50.924;4.396;2023-01-08T06:57:58;8.80;99.90
19829;DHT22;10075;50.924;4.396;2023-01-08T07:00:25;8.80;99.90
19829;DHT22;10075;50.924;4.396;2023-01-08T07:02:53;8.80;99.90
19829;DHT22;10075;50.924;4.396;2023-01-08T07:05:20;8.90;99.90
19829;DHT22;10075;50.924;4.396;2023-01-08T07:07:48;8.90;99.90
19829;DHT22;10075;50.924;4.396;2023-01-08T07:10:16;9.00;99.90
19829;DHT22;10075;50.924;4.396;2023-01-08T07:12:43;9.00;99.90
19829;DHT22;10075;50.924;4.396;2023-01-08T07:15:10;9.00;99.90
19829;DHT22;10075;50.924;4.396;2023-01-08T07:17:38;9.00;99.90
19829;DHT22;10075;50.924;4.396;2023-01-08T07:20:06;9.10;99.90
19829;DHT22;10075;50.924;4.396;2023-01-08T07:22:34;9.10;99.90
19829;DHT22;10075;50.924;4.396;2023-01-08T07:25:01;9.20;99.90
19829;DHT22;10075;50.924;4.396;2023-01-08T07:27:31;9.20;99.90
19829;DHT22;10075;50.924;4.396;2023-01-08T07:29:58;9.30;99.90
19829;DHT22;10075;50.924;4.396;2023-01-08T07:32:25;9.30;99.90
19829;DHT22;10075;50.924;4.396;2023-01-08T07:34:52;9.40;99.90
19829;DHT22;10075;50.924;4.396;2023-01-08T07:37:23;9.40;99.90
19829;DHT22;10075;50.924;4.396;2023-01-08T07:39:50;9.40;99.90
19829;DHT22;10075;50.924;4.396;2023-01-08T07:42:17;9.40;99.90
19829;DHT22;10075;50.924;4.396;2023-01-08T07:44:46;9.40;99.90
19829;DHT22;10075;50.924;4.396;2023-01-08T07:47:13;9.40;99.90
19829;DHT22;10075;50.924;4.396;2023-01-08T07:49:40;9.40;99.90
19829;DHT22;10075;50.924;4.396;2023-01-08T07:52:07;9.40;99.90
19829;DHT22;10075;50.924;4.396;2023-01-08T07:54:34;9.40;99.90
19829;DHT22;10075;50.924;4.396;2023-01-08T07:57:01;9.30;99.90
19829;DHT22;10075;50.924;4.396;2023-01-08T07:59:28;9.30;99.90
19829;DHT22;10075;50.924;4.396;2023-01-08T08:01:56;9.30;99.90
19829;DHT22;10075;50.924;4.396;2023-01-08T08:04:23;9.30;99.90
19829;DHT22;10075;50.924;4.396;2023-01-08T08:06:50;9.30;99.90
19829;DHT22;10075;50.924;4.396;2023-01-08T08:09:18;9.30;99.90
19829;DHT22;10075;50.924;4.396;2023-01-08T08:11:45;9.30;99.90
19829;DHT22;10075;50.924;4.396;2023-01-08T08:14:11;9.30;99.90
19829;DHT22;10075;50.924;4.396;2023-01-08T08:16:39;9.30;99.90
19829;DHT22;10075;50.924;4.396;2023-01-08T08:19:07;9.40;99.90
19829;DHT22;10075;50.924;4.396;2023-01-08T08:21:37;9.30;99.90
19829;DHT22;10075;50.924;4.396;2023-01-08T08:24:05;9.40;99.90
19829;DHT22;10075;50.924;4.396;2023-01-08T08:26:32;9.40;99.90
19829;DHT22;10075;50.924;4.396;2023-01-08T08:28:59;9.40;99.90
19829;DHT22;10075;50.924;4.396;2023-01-08T08:31:26;9.50;99.90
19829;DHT22;10075;50.924;4.396;2023-01-08T08:33:53;9.50;99.90
19829;DHT22;10075;50.924;4.396;2023-01-08T08:36:27;9.40;99.90
19829;DHT22;10075;50.924;4.396;2023-01-08T08:38:54;9.50;99.90
19829;DHT22;10075;50.924;4.396;2023-01-08T08:41:21;9.50;99.90
19829;DHT22;10075;50.924;4.396;2023-01-08T08:43:48;9.50;99.90
19829;DHT22;10075;50.924;4.396;2023-01-08T08:46:16;9.50;99.90
19829;DHT22;10075;50.924;4.396;2023-01-08T08:48:44;9.50;99.90
19829;DHT22;10075;50.924;4.396;2023-01-08T08:51:11;9.50;99.90
19829;DHT22;10075;50.924;4.396;2023-01-08T08:53:40;9.60;99.90
19829;DHT22;10075;50.924;4.396;2023-01-08T08:56:07;9.50;99.90
19829;DHT22;10075;50.924;4.396;2023-01-08T08:58:34;9.50;99.90
19829;DHT22;10075;50.924;4.396;2023-01-08T09:01:02;9.50;99.90
19829;DHT22;10075;50.924;4.396;2023-01-08T09:03:29;9.50;99.90
19829;DHT22;10075;50.924;4.396;2023-01-08T09:05:56;9.50;99.90
19829;DHT22;10075;50.924;4.396;2023-01-08T09:08:23;9.40;99.90
19829;DHT22;10075;50.924;4.396;2023-01-08T09:10:52;9.50;99.90
19829;DHT22;10075;50.924;4.396;2023-01-08T09:13:19;9.50;99.90
19829;DHT22;10075;50.924;4.396;2023-01-08T09:15:46;9.50;99.90
19829;DHT22;10075;50.924;4.396;2023-01-08T09:18:13;9.60;99.90
19829;DHT22;10075;50.924;4.396;2023-01-08T09:20:40;9.50;99.90
19829;DHT22;10075;50.924;4.396;2023-01-08T09:23:08;9.50;99.90
19829;DHT22;10075;50.924;4.396;2023-01-08T09:25:35;9.60;99.90
19829;DHT22;10075;50.924;4.396;2023-01-08T09:28:05;9.70;99.90
19829;DHT22;10075;50.924;4.396;2023-01-08T09:30:33;9.80;99.90
19829;DHT22;10075;50.924;4.396;2023-01-08T09:33:01;9.80;99.90
19829;DHT22;10075;50.924;4.396;2023-01-08T09:35:29;9.90;99.90
19829;DHT22;10075;50.924;4.396;2023-01-08T09:37:56;10.00;99.90
19829;DHT22;10075;50.924;4.396;2023-01-08T09:40:26;10.00;99.90
19829;DHT22;10075;50.924;4.396;2023-01-08T09:42:55;10.10;99.90
19829;DHT22;10075;50.924;4.396;2023-01-08T09:45:27;10.20;99.90
19829;DHT22;10075;50.924;4.396;2023-01-08T09:47:56;10.20;99.90
19829;DHT22;10075;50.924;4.396;2023-01-08T09:50:26;10.20;99.90
19829;DHT22;10075;50.924;4.396;2023-01-08T09:52:56;10.10;99.90
19829;DHT22;10075;50.924;4.396;2023-01-08T09:55:23;10.20;99.90
19829;DHT22;10075;50.924;4.396;2023-01-08T09:57:51;10.20;99.90
19829;DHT22;10075;50.924;4.396;2023-01-08T10:00:21;10.20;99.90
19829;DHT22;10075;50.924;4.396;2023-01-08T10:02:52;10.30;99.90
19829;DHT22;10075;50.924;4.396;2023-01-08T10:05:20;10.20;99.90
19829;DHT22;10075;50.924;4.396;2023-01-08T10:59:19;11.00;99.90
19829;DHT22;10075;50.924;4.396;2023-01-08T11:01:47;11.20;99.90
19829;DHT22;10075;50.924;4.396;2023-01-08T11:04:21;11.20;99.90
19829;DHT22;10075;50.924;4.396;2023-01-08T11:06:48;11.20;99.90
19829;DHT22;10075;50.924;4.396;2023-01-08T11:09:21;11.30;99.90
19829;DHT22;10075;50.924;4.396;2023-01-08T11:11:49;11.40;99.90
19829;DHT22;10075;50.924;4.396;2023-01-08T11:14:21;11.40;99.90
19829;DHT22;10075;50.924;4.396;2023-01-08T11:16:49;11.40;99.90
19829;DHT22;10075;50.924;4.396;2023-01-08T11:19:18;11.30;99.90
19829;DHT22;10075;50.924;4.396;2023-01-08T11:21:56;11.20;99.90
19829;DHT22;10075;50.924;4.396;2023-01-08T11:24:25;11.20;99.90
19829;DHT22;10075;50.924;4.396;2023-01-08T11:26:56;11.10;99.90
19829;DHT22;10075;50.924;4.396;2023-01-08T11:29:30;11.20;99.90
19829;DHT22;10075;50.924;4.396;2023-01-08T11:32:16;11.20;99.90
19829;DHT22;10075;50.924;4.396;2023-01-08T11:34:51;11.30;99.90
19829;DHT22;10075;50.924;4.396;2023-01-08T11:37:22;11.20;99.90
19829;DHT22;10075;50.924;4.396;2023-01-08T11:39:51;11.10;99.90
19829;DHT22;10075;50.924;4.396;2023-01-08T11:42:30;11.00;99.90
19829;DHT22;10075;50.924;4.396;2023-01-08T11:45:14;11.00;99.90
19829;DHT22;10075;50.924;4.396;2023-01-08T11:47:55;11.00;99.90
19829;DHT22;10075;50.924;4.396;2023-01-08T11:50:33;11.00;99.90
19829;DHT22;10075;50.924;4.396;2023-01-08T11:53:13;11.20;99.90
19829;DHT22;10075;50.924;4.396;2023-01-08T11:55:51;11.10;99.90
19829;DHT22;10075;50.924;4.396;2023-01-08T11:58:31;11.20;99.90
19829;DHT22;10075;50.924;4.396;2023-01-08T12:01:24;11.20;99.90
19829;DHT22;10075;50.924;4.396;2023-01-08T12:04:04;11.20;99.90
19829;DHT22;10075;50.924;4.396;2023-01-08T12:06:42;11.30;99.90
19829;DHT22;10075;50.924;4.396;2023-01-08T12:09:19;11.20;99.90
19829;DHT22;10075;50.924;4.396;2023-01-08T12:11:58;11.30;99.90
19829;DHT22;10075;50.924;4.396;2023-01-08T12:14:37;11.40;99.90
19829;DHT22;10075;50.924;4.396;2023-01-08T12:17:36;11.20;99.90
19829;DHT22;10075;50.924;4.396;2023-01-08T12:20:14;11.20;99.90
19829;DHT22;10075;50.924;4.396;2023-01-08T12:22:47;11.30;99.90
19829;DHT22;10075;50.924;4.396;2023-01-08T12:25:34;11.40;99.90
19829;DHT22;10075;50.924;4.396;2023-01-08T12:28:17;11.40;99.90
19829;DHT22;10075;50.924;4.396;2023-01-08T12:31:10;11.50;99.90
19829;DHT22;10075;50.924;4.396;2023-01-08T12:33:46;11.50;99.90
19829;DHT22;10075;50.924;4.396;2023-01-08T12:36:19;11.50;99.90
19829;DHT22;10075;50.924;4.396;2023-01-08T12:38:52;11.50;99.90
19829;DHT22;10075;50.924;4.396;2023-01-08T12:41:20;11.50;99.90
19829;DHT22;10075;50.924;4.396;2023-01-08T12:43:51;11.60;99.90
19829;DHT22;10075;50.924;4.396;2023-01-08T12:46:20;11.60;99.90
19829;DHT22;10075;50.924;4.396;2023-01-08T12:48:52;11.70;99.90
19829;DHT22;10075;50.924;4.396;2023-01-08T12:51:25;11.70;99.90
19829;DHT22;10075;50.924;4.396;2023-01-08T12:54:01;11.70;99.90
19829;DHT22;10075;50.924;4.396;2023-01-08T12:56:36;11.80;99.90
19829;DHT22;10075;50.924;4.396;2023-01-08T12:59:14;11.80;99.90
19829;DHT22;10075;50.924;4.396;2023-01-08T13:01:49;11.80;99.90
19829;DHT22;10075;50.924;4.396;2023-01-08T13:04:19;11.80;99.90
19829;DHT22;10075;50.924;4.396;2023-01-08T13:06:55;11.80;99.90
19829;DHT22;10075;50.924;4.396;2023-01-08T13:09:24;11.80;99.90
19829;DHT22;10075;50.924;4.396;2023-01-08T13:11:53;11.80;99.90
19829;DHT22;10075;50.924;4.396;2023-01-08T13:14:21;11.80;99.90
19829;DHT22;10075;50.924;4.396;2023-01-08T13:17:01;11.80;99.90
19829;DHT22;10075;50.924;4.396;2023-01-08T13:19:35;11.80;99.90
19829;DHT22;10075;50.924;4.396;2023-01-08T13:22:03;11.80;99.90
19829;DHT22;10075;50.924;4.396;2023-01-08T13:24:33;11.80;99.90
19829;DHT22;10075;50.924;4.396;2023-01-08T13:27:19;11.90;99.90
19829;DHT22;10075;50.924;4.396;2023-01-08T13:29:49;11.90;99.90
19829;DHT22;10075;50.924;4.396;2023-01-08T13:32:25;11.80;99.90
19829;DHT22;10075;50.924;4.396;2023-01-08T13:35:18;11.80;99.90
19829;DHT22;10075;50.924;4.396;2023-01-08T13:37:48;11.90;99.90
19829;DHT22;10075;50.924;4.396;2023-01-08T13:40:37;11.90;99.90
19829;DHT22;10075;50.924;4.396;2023-01-08T13:43:10;11.90;99.90
19829;DHT22;10075;50.924;4.396;2023-01-08T13:45:39;11.80;99.90
19829;DHT22;10075;50.924;4.396;2023-01-08T13:48:20;11.60;99.90
19829;DHT22;10075;50.924;4.396;2023-01-08T13:50:49;11.60;99.90
19829;DHT22;10075;50.924;4.396;2023-01-08T13:53:18;11.70;99.90
19829;DHT22;10075;50.924;4.396;2023-01-08T13:55:53;11.80;99.90
19829;DHT22;10075;50.924;4.396;2023-01-08T13:58:25;11.80;99.90
19829;DHT22;10075;50.924;4.396;2023-01-08T14:00:54;11.90;99.90
19829;DHT22;10075;50.924;4.396;2023-01-08T14:03:24;12.00;99.90
19829;DHT22;10075;50.924;4.396;2023-01-08T14:06:03;12.10;99.90
19829;DHT22;10075;50.924;4.396;2023-01-08T14:08:32;12.10;99.90
19829;DHT22;10075;50.924;4.396;2023-01-08T14:10:59;12.00;99.90
19829;DHT22;10075;50.924;4.396;2023-01-08T14:13:30;11.90;99.90
19829;DHT22;10075;50.924;4.396;2023-01-08T14:16:02;11.80;99.90
19829;DHT22;10075;50.924;4.396;2023-01-08T14:18:29;11.80;99.90
19829;DHT22;10075;50.924;4.396;2023-01-08T14:20:58;11.90;99.90
19829;DHT22;10075;50.924;4.396;2023-01-08T14:23:26;11.90;99.90
19829;DHT22;10075;50.924;4.396;2023-01-08T14:25:57;11.90;99.90
19829;DHT22;10075;50.924;4.396;2023-01-08T14:28:26;11.80;99.90
19829;DHT22;10075;50.924;4.396;2023-01-08T14:30:55;11.80;99.90
19829;DHT22;10075;50.924;4.396;2023-01-08T14:33:25;11.80;99.90
19829;DHT22;10075;50.924;4.396;2023-01-08T14:35:55;11.80;99.90
19829;DHT22;10075;50.924;4.396;2023-01-08T14:38:24;11.90;99.90
19829;DHT22;10075;50.924;4.396;2023-01-08T14:40:58;11.90;99.90
19829;DHT22;10075;50.924;4.396;2023-01-08T14:43:26;11.90;99.90
19829;DHT22;10075;50.924;4.396;2023-01-08T14:45:54;12.00;99.90
19829;DHT22;10075;50.924;4.396;2023-01-08T14:48:23;12.00;99.90
19829;DHT22;10075;50.924;4.396;2023-01-08T14:51:02;12.00;99.90
19829;DHT22;10075;50.924;4.396;2023-01-08T14:53:32;11.90;99.90
19829;DHT22;10075;50.924;4.396;2023-01-08T14:56:01;11.70;99.90
19829;DHT22;10075;50.924;4.396;2023-01-08T14:58:36;11.50;99.90
19829;DHT22;10075;50.924;4.396;2023-01-08T15:01:06;11.30;99.90
19829;DHT22;10075;50.924;4.396;2023-01-08T15:03:36;11.40;99.90
19829;DHT22;10075;50.924;4.396;2023-01-08T15:06:03;11.20;99.90
19829;DHT22;10075;50.924;4.396;2023-01-08T15:08:35;11.20;99.90
19829;DHT22;10075;50.924;4.396;2023-01-08T15:11:04;11.20;99.90
19829;DHT22;10075;50.924;4.396;2023-01-08T15:13:33;11.20;99.90
19829;DHT22;10075;50.924;4.396;2023-01-08T15:16:06;11.30;99.90
19829;DHT22;10075;50.924;4.396;2023-01-08T15:18:40;11.20;99.90
19829;DHT22;10075;50.924;4.396;2023-01-08T15:21:08;11.20;99.90
19829;DHT22;10075;50.924;4.396;2023-01-08T15:23:39;11.30;99.90
19829;DHT22;10075;50.924;4.396;2023-01-08T15:26:11;11.30;99.90
19829;DHT22;10075;50.924;4.396;2023-01-08T15:28:44;11.40;99.90
19829;DHT22;10075;50.924;4.396;2023-01-08T15:31:22;11.50;99.90
19829;DHT22;10075;50.924;4.396;2023-01-08T15:33:49;11.50;99.90
19829;DHT22;10075;50.924;4.396;2023-01-08T15:36:16;11.40;99.90
19829;DHT22;10075;50.924;4.396;2023-01-08T15:38:45;11.30;99.90
19829;DHT22;10075;50.924;4.396;2023-01-08T15:41:13;11.30;99.90
19829;DHT22;10075;50.924;4.396;2023-01-08T15:44:02;11.40;99.90
19829;DHT22;10075;50.924;4.396;2023-01-08T15:46:28;11.30;99.90
19829;DHT22;10075;50.924;4.396;2023-01-08T15:48:56;11.30;99.90
19829;DHT22;10075;50.924;4.396;2023-01-08T15:51:23;11.30;99.90
19829;DHT22;10075;50.924;4.396;2023-01-08T15:53:52;11.40;99.90
19829;DHT22;10075;50.924;4.396;2023-01-08T15:56:21;11.30;99.90
19829;DHT22;10075;50.924;4.396;2023-01-08T15:58:48;11.30;99.90
19829;DHT22;10075;50.924;4.396;2023-01-08T16:01:17;11.30;99.90
19829;DHT22;10075;50.924;4.396;2023-01-08T16:03:44;11.30;99.90
19829;DHT22;10075;50.924;4.396;2023-01-08T16:06:11;11.40;99.90
19829;DHT22;10075;50.924;4.396;2023-01-08T16:08:38;11.40;99.90
19829;DHT22;10075;50.924;4.396;2023-01-08T16:11:11;11.30;99.90
19829;DHT22;10075;50.924;4.396;2023-01-08T16:13:39;11.30;99.90
19829;DHT22;10075;50.924;4.396;2023-01-08T16:16:07;11.30;99.90
19829;DHT22;10075;50.924;4.396;2023-01-08T16:18:35;11.30;99.90
19829;DHT22;10075;50.924;4.396;2023-01-08T16:21:02;11.30;99.90
19829;DHT22;10075;50.924;4.396;2023-01-08T16:23:30;11.20;99.90
19829;DHT22;10075;50.924;4.396;2023-01-08T16:25:58;11.30;99.90
19829;DHT22;10075;50.924;4.396;2023-01-08T16:28:26;11.30;99.90
19829;DHT22;10075;50.924;4.396;2023-01-08T16:30:53;11.30;99.90
19829;DHT22;10075;50.924;4.396;2023-01-08T16:33:22;11.20;99.90
19829;DHT22;10075;50.924;4.396;2023-01-08T16:35:55;11.20;99.90
19829;DHT22;10075;50.924;4.396;2023-01-08T16:38:22;11.10;99.90
19829;DHT22;10075;50.924;4.396;2023-01-08T16:40:50;11.10;99.90
19829;DHT22;10075;50.924;4.396;2023-01-08T16:43:17;11.00;99.90
19829;DHT22;10075;50.924;4.396;2023-01-08T16:45:46;11.00;99.90